createdAt,value
2017-06-23T00:00:47.944Z,49.50
2017-06-23T00:03:14.093Z,49.50
2017-06-23T00:05:40.268Z,48.90
2017-06-23T00:08:06.424Z,49.10
2017-06-23T00:10:32.612Z,49.70
2017-06-23T00:12:58.779Z,49.80
2017-06-23T00:15:25.004Z,50.20
2017-06-23T00:17:51.177Z,50.30
2017-06-23T00:20:17.360Z,50.30
2017-06-23T00:22:43.531Z,49.90
2017-06-23T00:25:09.682Z,49.80
2017-06-23T00:27:35.865Z,50.10
2017-06-23T00:30:02.018Z,50.60
2017-06-23T00:32:28.225Z,50.60
2017-06-23T00:34:54.385Z,50.60
2017-06-23T00:37:20.540Z,51.10
2017-06-23T00:39:46.709Z,50.90
2017-06-23T00:42:12.888Z,51.40
2017-06-23T00:44:39.241Z,51.70
2017-06-23T00:47:05.437Z,51.70
2017-06-23T00:49:31.613Z,51.70
2017-06-23T00:51:57.789Z,52.10
2017-06-23T00:54:23.958Z,52.50
2017-06-23T00:56:50.149Z,51.90
2017-06-23T00:59:22.924Z,51.70
2017-06-23T01:01:49.185Z,51.70
2017-06-23T01:04:15.377Z,52.40
2017-06-23T01:06:41.540Z,52.40
2017-06-23T01:09:07.733Z,53.30
2017-06-23T01:11:33.901Z,52.80
2017-06-23T01:14:00.148Z,52.20
2017-06-23T01:16:26.300Z,51.90
2017-06-23T01:18:52.510Z,52.00
2017-06-23T01:21:18.677Z,52.40
2017-06-23T01:23:44.844Z,52.30
2017-06-23T01:26:10.985Z,52.30
2017-06-23T01:28:43.551Z,53.00
2017-06-23T01:31:09.723Z,52.70
2017-06-23T01:33:35.968Z,53.50
2017-06-23T01:36:02.293Z,53.80
2017-06-23T01:38:28.493Z,54.10
2017-06-23T01:40:54.692Z,54.00
2017-06-23T01:43:20.883Z,54.20
2017-06-23T01:45:47.090Z,54.40
2017-06-23T01:48:13.321Z,55.00
2017-06-23T01:50:39.504Z,54.50
2017-06-23T01:53:05.697Z,54.10
2017-06-23T01:55:31.941Z,53.80
2017-06-23T01:57:58.098Z,53.60
2017-06-23T02:00:24.291Z,53.90
2017-06-23T02:02:50.456Z,54.20
2017-06-23T02:05:16.637Z,53.70
2017-06-23T02:07:42.824Z,53.60
2017-06-23T02:10:09.012Z,53.40
2017-06-23T02:12:35.199Z,53.40
2017-06-23T02:15:01.509Z,53.00
2017-06-23T02:17:27.653Z,53.70
2017-06-23T02:19:53.881Z,54.00
2017-06-23T02:22:20.088Z,53.70
2017-06-23T02:24:46.289Z,53.60
2017-06-23T02:27:12.432Z,53.40
2017-06-23T02:29:38.619Z,53.50
2017-06-23T02:32:04.802Z,54.00
2017-06-23T02:34:31.161Z,54.00
2017-06-23T02:36:57.321Z,54.10
2017-06-23T02:39:23.574Z,54.50
2017-06-23T02:41:49.732Z,54.80
2017-06-23T02:44:15.940Z,54.00
2017-06-23T02:46:42.105Z,53.90
2017-06-23T02:49:08.325Z,54.10
2017-06-23T02:51:34.556Z,54.30
2017-06-23T02:54:00.722Z,54.30
2017-06-23T02:56:26.913Z,54.50
2017-06-23T02:58:59.501Z,54.60
2017-06-23T03:01:25.684Z,54.90
2017-06-23T03:03:51.832Z,55.30
2017-06-23T03:06:18.032Z,55.30
2017-06-23T03:08:44.200Z,55.40
2017-06-23T03:11:10.441Z,55.40
2017-06-23T03:13:36.589Z,55.60
2017-06-23T03:16:02.776Z,55.50
2017-06-23T03:18:28.932Z,55.40
2017-06-23T03:20:55.114Z,55.50
2017-06-23T03:23:21.281Z,55.70
2017-06-23T03:25:47.456Z,55.60
2017-06-23T03:28:20.238Z,55.60
2017-06-23T03:30:46.443Z,55.60
2017-06-23T03:33:12.592Z,55.90
2017-06-23T03:35:38.775Z,55.80
2017-06-23T03:38:04.933Z,56.10
2017-06-23T03:40:31.095Z,56.60
2017-06-23T03:42:57.264Z,56.60
2017-06-23T03:45:23.473Z,56.50
2017-06-23T03:47:49.656Z,56.40
2017-06-23T03:50:16.000Z,56.20
2017-06-23T03:52:42.198Z,56.70
2017-06-23T03:55:08.375Z,56.30
2017-06-23T03:57:34.611Z,56.30
2017-06-23T04:00:09.081Z,56.00
2017-06-23T04:02:35.328Z,56.20
2017-06-23T04:05:01.524Z,56.90
2017-06-23T04:07:27.708Z,57.60
2017-06-23T04:09:53.937Z,58.20
2017-06-23T04:12:20.105Z,58.10
2017-06-23T04:14:46.294Z,58.20
2017-06-23T04:17:12.475Z,58.30
2017-06-23T04:19:38.680Z,58.00
2017-06-23T04:22:04.863Z,58.00
2017-06-23T04:24:31.049Z,57.80
2017-06-23T04:26:57.241Z,57.50
2017-06-23T04:29:29.646Z,57.20
2017-06-23T04:31:55.832Z,57.20
2017-06-23T04:34:21.984Z,56.60
2017-06-23T04:36:48.185Z,57.10
2017-06-23T04:39:14.384Z,57.30
2017-06-23T04:41:40.538Z,57.30
2017-06-23T04:44:06.772Z,57.30
2017-06-23T04:46:32.938Z,56.90
2017-06-23T04:48:59.157Z,56.80
2017-06-23T04:51:25.324Z,56.60
2017-06-23T04:53:51.548Z,56.80
2017-06-23T04:56:17.724Z,56.20
2017-06-23T04:58:43.888Z,56.00
2017-06-23T05:01:10.093Z,55.40
2017-06-23T05:03:36.299Z,55.20
2017-06-23T05:06:02.473Z,55.40
2017-06-23T05:08:28.686Z,55.30
2017-06-23T05:10:54.864Z,55.70
2017-06-23T05:13:21.053Z,55.60
2017-06-23T05:15:47.208Z,55.30
2017-06-23T05:18:13.437Z,55.50
2017-06-23T05:20:39.599Z,55.30
2017-06-23T05:23:05.760Z,54.90
2017-06-23T05:25:31.940Z,54.50
2017-06-23T05:27:58.087Z,54.70
2017-06-23T05:30:24.289Z,54.70
2017-06-23T05:32:50.444Z,54.80
2017-06-23T05:35:16.686Z,54.90
2017-06-23T05:37:49.424Z,54.80
2017-06-23T05:40:15.587Z,54.60
2017-06-23T05:42:41.841Z,54.80
2017-06-23T05:45:08.047Z,54.50
2017-06-23T05:47:37.604Z,54.60
2017-06-23T05:50:04.082Z,54.40
2017-06-23T05:52:30.333Z,53.70
2017-06-23T05:55:03.250Z,53.80
2017-06-23T05:57:35.390Z,54.00
2017-06-23T06:00:05.142Z,54.20
2017-06-23T06:02:35.559Z,54.50
2017-06-23T06:05:08.098Z,54.50
2017-06-23T06:07:34.275Z,54.00
2017-06-23T06:10:06.877Z,54.00
2017-06-23T06:12:34.604Z,54.00
2017-06-23T06:15:00.780Z,53.10
2017-06-23T06:17:26.953Z,53.10
2017-06-23T06:19:53.134Z,53.50
2017-06-23T06:22:19.302Z,53.20
2017-06-23T06:24:45.472Z,53.40
2017-06-23T06:27:17.657Z,53.40
2017-06-23T06:29:43.868Z,52.70
2017-06-23T06:32:10.075Z,52.30
2017-06-23T06:34:36.276Z,52.30
2017-06-23T06:37:02.476Z,52.30
2017-06-23T06:39:35.349Z,52.60
2017-06-23T06:42:01.549Z,52.40
2017-06-23T06:44:27.732Z,51.70
2017-06-23T06:46:53.893Z,51.50
2017-06-23T06:49:20.128Z,51.40
2017-06-23T06:51:46.305Z,51.50
2017-06-23T06:54:12.461Z,51.80
2017-06-23T06:56:38.648Z,51.30
2017-06-23T06:59:04.842Z,51.50
2017-06-23T07:01:37.845Z,51.50
2017-06-23T07:04:04.040Z,51.50
2017-06-23T07:06:30.248Z,50.80
2017-06-23T07:09:02.908Z,51.00
2017-06-23T07:11:29.089Z,50.80
2017-06-23T07:14:01.500Z,50.80
2017-06-23T07:16:27.677Z,51.00
2017-06-23T07:18:53.873Z,50.30
2017-06-23T07:21:20.133Z,50.50
2017-06-23T07:23:52.220Z,50.80
2017-06-23T07:26:18.383Z,50.60
2017-06-23T07:29:08.995Z,50.00
2017-06-23T07:31:41.524Z,50.10
2017-06-23T07:34:07.694Z,50.70
2017-06-23T07:36:33.884Z,49.80
2017-06-23T07:39:06.401Z,49.80
2017-06-23T07:41:38.833Z,50.10
2017-06-23T07:44:05.013Z,49.90
2017-06-23T07:46:37.349Z,49.80
2017-06-23T07:49:03.521Z,50.00
2017-06-23T07:51:30.278Z,49.90
2017-06-23T07:53:56.453Z,49.30
2017-06-23T07:56:22.818Z,48.90
2017-06-23T07:58:49.017Z,48.30
2017-06-23T08:01:15.192Z,47.60
2017-06-23T08:03:41.372Z,47.60
2017-06-23T08:06:07.529Z,47.20
2017-06-23T08:08:40.121Z,46.60
2017-06-23T08:11:06.309Z,46.40
2017-06-23T08:13:39.212Z,46.90
2017-06-23T08:16:05.408Z,46.70
2017-06-23T08:18:31.580Z,46.50
2017-06-23T08:20:57.741Z,46.20
2017-06-23T08:23:23.971Z,45.60
2017-06-23T08:25:50.185Z,45.00
2017-06-23T08:28:22.945Z,44.40
2017-06-23T08:30:49.100Z,44.00
2017-06-23T08:33:15.296Z,44.20
2017-06-23T08:35:48.016Z,44.90
2017-06-23T08:38:14.240Z,45.00
2017-06-23T08:40:40.386Z,44.20
2017-06-23T08:43:06.590Z,42.20
2017-06-23T08:45:32.834Z,41.50
2017-06-23T08:48:05.356Z,40.70
2017-06-23T08:50:31.557Z,40.10
2017-06-23T08:52:57.765Z,40.70
2017-06-23T08:55:26.678Z,41.10
2017-06-23T08:57:52.884Z,41.50
2017-06-23T09:00:19.421Z,40.20
2017-06-23T09:02:52.372Z,39.30
2017-06-23T09:05:18.559Z,38.50
2017-06-23T09:07:44.713Z,37.50
2017-06-23T09:10:10.908Z,36.50
2017-06-23T09:12:37.120Z,35.50
2017-06-23T09:15:03.374Z,35.30
2017-06-23T09:17:29.522Z,36.20
2017-06-23T09:19:55.787Z,36.60
2017-06-23T09:22:21.946Z,36.60
2017-06-23T09:24:48.124Z,38.00
2017-06-23T09:27:14.335Z,37.90
2017-06-23T09:29:40.510Z,37.30
2017-06-23T09:32:06.680Z,38.50
2017-06-23T09:34:32.908Z,39.00
2017-06-23T09:37:06.951Z,39.20
2017-06-23T09:39:33.149Z,38.80
2017-06-23T09:41:59.428Z,39.00
2017-06-23T09:47:31.097Z,39.60
2017-06-23T09:49:57.280Z,40.70
2017-06-23T09:52:23.433Z,40.70
2017-06-23T09:54:49.637Z,40.50
2017-06-23T09:57:15.808Z,39.40
2017-06-23T09:59:41.965Z,38.60
2017-06-23T10:02:08.147Z,38.00
2017-06-23T10:04:34.310Z,37.70
2017-06-23T10:07:00.541Z,36.90
2017-06-23T10:09:26.815Z,37.40
2017-06-23T10:11:53.086Z,37.70
2017-06-23T10:14:19.292Z,37.80
2017-06-23T10:16:46.157Z,37.10
2017-06-23T10:19:20.258Z,37.80
2017-06-23T10:21:46.467Z,37.30
2017-06-23T10:24:12.623Z,36.80
2017-06-23T10:26:38.789Z,36.60
2017-06-23T10:29:04.961Z,36.90
2017-06-23T10:31:31.145Z,37.20
2017-06-23T10:33:57.312Z,37.00
2017-06-23T10:36:23.493Z,36.50
2017-06-23T10:38:49.660Z,37.80
2017-06-23T10:41:15.989Z,38.20
2017-06-23T10:43:42.175Z,38.40
2017-06-23T10:46:08.429Z,38.50
2017-06-23T10:48:34.853Z,39.20
2017-06-23T10:51:01.030Z,39.50
2017-06-23T10:53:27.209Z,39.90
2017-06-23T10:55:53.368Z,39.40
2017-06-23T10:58:19.590Z,39.80
2017-06-23T11:00:45.780Z,38.60
2017-06-23T11:03:11.956Z,39.00
2017-06-23T11:05:38.118Z,38.30
2017-06-23T11:08:04.327Z,39.60
2017-06-23T11:10:30.645Z,39.90
2017-06-23T11:12:56.827Z,39.10
2017-06-23T11:15:22.988Z,39.30
2017-06-23T11:17:49.495Z,38.70
2017-06-23T11:20:15.657Z,38.30
2017-06-23T11:22:41.864Z,38.80
2017-06-23T11:25:08.012Z,38.60
2017-06-23T11:27:34.204Z,39.00
2017-06-23T11:30:00.412Z,40.10
2017-06-23T11:32:26.587Z,40.30
2017-06-23T11:34:52.730Z,40.60
2017-06-23T11:37:18.924Z,41.30
2017-06-23T11:39:45.154Z,41.80
2017-06-23T11:42:11.577Z,41.60
2017-06-23T11:44:37.840Z,41.30
2017-06-23T11:47:04.045Z,40.80
2017-06-23T11:49:30.383Z,41.40
2017-06-23T11:51:56.563Z,41.60
2017-06-23T11:54:22.776Z,41.60
2017-06-23T11:56:48.928Z,41.90
2017-06-23T11:59:15.104Z,41.80
2017-06-23T12:01:41.314Z,41.60
2017-06-23T12:04:07.506Z,41.70
2017-06-23T12:06:33.727Z,41.80
2017-06-23T12:08:59.916Z,41.00
2017-06-23T12:11:26.111Z,41.40
2017-06-23T12:13:52.453Z,41.50
2017-06-23T12:16:18.667Z,42.50
2017-06-23T12:18:44.888Z,42.20
2017-06-23T12:21:11.036Z,41.70
2017-06-23T12:23:37.223Z,41.40
2017-06-23T12:26:03.373Z,41.40
2017-06-23T12:28:29.576Z,41.20
2017-06-23T12:30:55.759Z,41.50
2017-06-23T12:33:21.966Z,41.50
2017-06-23T12:35:48.186Z,41.90
2017-06-23T12:38:14.357Z,41.70
2017-06-23T12:40:40.528Z,42.00
2017-06-23T12:43:06.730Z,41.90
2017-06-23T12:45:32.942Z,42.30
2017-06-23T12:47:59.123Z,41.50
2017-06-23T12:50:25.288Z,41.80
2017-06-23T12:52:51.476Z,42.00
2017-06-23T12:55:18.680Z,41.00
2017-06-23T12:57:51.664Z,42.00
2017-06-23T13:00:17.864Z,41.70
2017-06-23T13:02:44.072Z,41.00
2017-06-23T13:05:10.281Z,40.90
2017-06-23T13:07:36.533Z,40.70
2017-06-23T13:10:02.739Z,41.10
2017-06-23T13:12:28.920Z,41.40
2017-06-23T13:14:55.114Z,40.70
2017-06-23T13:17:21.277Z,40.90
2017-06-23T13:19:47.464Z,41.10
2017-06-23T13:22:13.649Z,41.10
2017-06-23T13:24:39.832Z,39.70
2017-06-23T13:27:06.142Z,40.80
2017-06-23T13:29:38.637Z,40.80
2017-06-23T13:32:04.822Z,40.90
2017-06-23T13:34:30.982Z,41.10
2017-06-23T13:37:05.770Z,40.90
2017-06-23T13:42:24.676Z,40.60
2017-06-23T13:44:50.873Z,40.60
2017-06-23T13:47:25.037Z,40.10
2017-06-23T13:49:51.212Z,41.20
2017-06-23T13:52:17.484Z,40.90
2017-06-23T13:55:07.652Z,40.90
2017-06-23T13:57:33.840Z,40.90
2017-06-23T13:59:59.996Z,40.90
2017-06-23T14:02:26.221Z,40.80
2017-06-23T14:04:52.376Z,40.60
2017-06-23T14:07:27.034Z,41.10
2017-06-23T14:09:53.209Z,39.80
2017-06-23T14:12:19.392Z,40.10
2017-06-23T14:14:45.589Z,40.10
2017-06-23T14:17:11.784Z,40.70
2017-06-23T14:19:38.013Z,40.60
2017-06-23T14:22:04.218Z,41.00
2017-06-23T14:24:30.364Z,40.20
2017-06-23T14:26:56.872Z,40.60
2017-06-23T14:29:23.058Z,40.50
2017-06-23T14:31:49.277Z,40.50
2017-06-23T14:34:36.940Z,40.60
2017-06-23T14:37:03.141Z,40.80
2017-06-23T14:39:29.345Z,40.40
2017-06-23T14:41:55.541Z,39.90
2017-06-23T14:44:21.709Z,40.00
2017-06-23T14:46:47.913Z,40.30
2017-06-23T14:49:14.103Z,39.70
2017-06-23T14:51:40.260Z,39.80
2017-06-23T14:54:06.441Z,39.80
2017-06-23T14:56:32.815Z,39.70
2017-06-23T14:58:58.992Z,39.60
2017-06-23T15:01:25.161Z,40.00
2017-06-23T15:03:51.333Z,39.90
2017-06-23T15:06:17.515Z,39.70
2017-06-23T15:08:43.684Z,39.60
2017-06-23T15:11:10.601Z,39.70
2017-06-23T15:13:36.797Z,39.70
2017-06-23T15:16:02.981Z,40.00
2017-06-23T15:18:29.848Z,39.70
2017-06-23T15:20:56.014Z,39.00
2017-06-23T15:23:22.204Z,39.10
2017-06-23T15:25:48.352Z,40.00
2017-06-23T15:28:21.056Z,40.00
2017-06-23T15:30:47.233Z,39.70
2017-06-23T15:33:13.400Z,39.60
2017-06-23T15:35:39.594Z,39.50
2017-06-23T15:38:05.768Z,39.60
2017-06-23T15:40:31.963Z,39.80
2017-06-23T15:42:58.112Z,39.50
2017-06-23T15:45:24.352Z,39.70
2017-06-23T15:47:50.521Z,39.90
2017-06-23T15:50:16.732Z,39.50
2017-06-23T15:52:42.949Z,39.80
2017-06-23T15:55:09.136Z,39.90
2017-06-23T15:57:35.288Z,40.10
2017-06-23T16:00:01.494Z,39.90
2017-06-23T16:02:27.660Z,40.00
2017-06-23T16:04:53.889Z,40.20
2017-06-23T16:07:20.052Z,40.00
2017-06-23T16:09:46.278Z,40.30
2017-06-23T16:12:12.441Z,40.00
2017-06-23T16:14:38.649Z,39.70
2017-06-23T16:17:04.813Z,40.10
2017-06-23T16:19:31.005Z,40.10
2017-06-23T16:21:57.176Z,40.10
2017-06-23T16:24:23.358Z,40.30
2017-06-23T16:26:49.512Z,39.90
2017-06-23T16:29:15.672Z,39.50
2017-06-23T16:31:41.836Z,37.20
2017-06-23T16:34:07.984Z,36.70
2017-06-23T16:36:34.182Z,36.90
2017-06-23T16:39:00.410Z,37.00
2017-06-23T16:41:26.580Z,37.00
2017-06-23T16:43:52.789Z,37.30
2017-06-23T16:46:18.954Z,37.50
2017-06-23T16:48:45.138Z,38.10
2017-06-23T16:51:11.355Z,37.90
2017-06-23T16:53:37.516Z,38.10
2017-06-23T16:56:03.705Z,38.20
2017-06-23T16:58:29.887Z,38.30
2017-06-23T17:00:56.084Z,38.40
2017-06-23T17:03:22.264Z,38.30
2017-06-23T17:05:48.444Z,38.40
2017-06-23T17:08:14.596Z,38.80
2017-06-23T17:10:40.772Z,38.80
2017-06-23T17:13:06.960Z,38.20
2017-06-23T17:15:33.147Z,39.90
2017-06-23T17:17:59.331Z,38.40
2017-06-23T17:20:25.524Z,37.90
2017-06-23T17:22:51.704Z,38.20
2017-06-23T17:25:17.862Z,38.20
2017-06-23T17:27:44.045Z,38.50
2017-06-23T17:30:10.228Z,37.90
2017-06-23T17:32:36.446Z,37.80
2017-06-23T17:35:02.733Z,37.50
2017-06-23T17:37:28.925Z,37.70
2017-06-23T17:39:55.095Z,37.70
2017-06-23T17:42:21.275Z,37.30
2017-06-23T17:45:00.300Z,37.20
2017-06-23T17:47:33.036Z,37.70
2017-06-23T17:50:16.105Z,37.40
2017-06-23T17:52:42.378Z,37.80
2017-06-23T17:55:08.616Z,37.30
2017-06-23T17:57:34.848Z,37.60
2017-06-23T18:00:01.065Z,37.50
2017-06-23T18:02:27.256Z,37.70
2017-06-23T18:04:53.433Z,38.00
2017-06-23T18:07:39.589Z,38.00
2017-06-23T18:10:09.244Z,37.80
2017-06-23T18:12:45.746Z,37.70
2017-06-23T18:15:11.972Z,38.00
2017-06-23T18:17:38.168Z,38.00
2017-06-23T18:20:04.388Z,38.00
2017-06-23T18:22:30.581Z,37.00
2017-06-23T18:24:56.795Z,37.00
2017-06-23T18:27:23.002Z,37.10
2017-06-23T18:29:49.154Z,36.80
2017-06-23T18:32:15.408Z,37.10
2017-06-23T18:34:41.613Z,35.90
2017-06-23T18:37:07.785Z,36.60
2017-06-23T18:39:33.972Z,35.80
2017-06-23T18:42:00.172Z,35.80
2017-06-23T18:44:26.402Z,36.10
2017-06-23T18:46:52.610Z,36.60
2017-06-23T18:49:18.793Z,36.70
2017-06-23T18:51:44.984Z,36.90
2017-06-23T18:54:17.676Z,36.80
2017-06-23T18:56:43.835Z,36.80
2017-06-23T18:59:10.045Z,36.70
2017-06-23T19:01:36.221Z,36.80
2017-06-23T19:04:02.432Z,37.10
2017-06-23T19:06:34.747Z,37.30
2017-06-23T19:09:00.972Z,37.50
2017-06-23T19:11:27.185Z,37.70
2017-06-23T19:13:53.428Z,38.20
2017-06-23T19:16:22.824Z,38.20
2017-06-23T19:18:49.038Z,38.30
2017-06-23T19:21:15.236Z,38.40
2017-06-23T19:23:41.476Z,39.00
2017-06-23T19:26:18.039Z,38.60
2017-06-23T19:28:44.300Z,38.90
2017-06-23T19:34:03.082Z,39.20
2017-06-23T19:36:29.317Z,39.00
2017-06-23T19:38:55.488Z,39.30
2017-06-23T19:41:21.636Z,39.00
2017-06-23T19:43:47.807Z,39.20
2017-06-23T19:46:13.986Z,39.60
2017-06-23T19:48:40.213Z,39.70
2017-06-23T19:51:06.399Z,39.80
2017-06-23T19:53:32.539Z,39.80
2017-06-23T19:55:58.724Z,39.80
2017-06-23T19:58:24.888Z,39.90
2017-06-23T20:00:51.065Z,40.30
2017-06-23T20:03:17.234Z,40.60
2017-06-23T20:05:43.436Z,40.80
2017-06-23T20:08:09.592Z,40.90
2017-06-23T20:10:35.777Z,41.10
2017-06-23T20:13:01.930Z,40.80
2017-06-23T20:15:28.102Z,41.10
2017-06-23T20:17:54.257Z,41.30
2017-06-23T20:20:20.412Z,41.30
2017-06-23T20:22:46.556Z,41.70
2017-06-23T20:25:12.742Z,41.50
2017-06-23T20:27:38.869Z,41.40
2017-06-23T20:30:05.056Z,41.30
2017-06-23T20:32:31.222Z,41.80
2017-06-23T20:34:57.372Z,41.80
2017-06-23T20:37:23.534Z,41.80
2017-06-23T20:39:49.706Z,41.80
2017-06-23T20:42:15.892Z,41.90
2017-06-23T20:44:42.056Z,42.00
2017-06-23T20:47:08.232Z,42.40
2017-06-23T20:49:34.390Z,42.30
2017-06-23T20:52:00.576Z,42.60
2017-06-23T20:54:26.736Z,42.50
2017-06-23T20:56:52.925Z,42.70
2017-06-23T20:59:19.112Z,42.50
2017-06-23T21:01:45.272Z,43.10
2017-06-23T21:04:11.444Z,43.10
2017-06-23T21:06:37.606Z,43.30
2017-06-23T21:09:04.101Z,43.30
2017-06-23T21:11:30.277Z,43.30
2017-06-23T21:13:56.420Z,43.40
2017-06-23T21:16:22.606Z,43.40
2017-06-23T21:18:48.800Z,44.30
2017-06-23T21:21:14.964Z,43.70
2017-06-23T21:23:41.148Z,43.80
2017-06-23T21:26:07.316Z,43.90
2017-06-23T21:28:33.493Z,44.20
2017-06-23T21:30:59.645Z,44.30
2017-06-23T21:33:25.815Z,44.60
2017-06-23T21:35:51.972Z,45.20
2017-06-23T21:38:18.149Z,45.40
2017-06-23T21:40:56.392Z,45.40
2017-06-23T21:43:22.565Z,45.90
2017-06-23T21:45:48.744Z,46.30
2017-06-23T21:48:14.912Z,46.60
2017-06-23T21:50:41.059Z,46.90
2017-06-23T21:53:07.224Z,47.30
2017-06-23T21:55:33.397Z,46.80
2017-06-23T21:57:59.569Z,46.90
2017-06-23T22:00:25.721Z,47.10
2017-06-23T22:02:51.892Z,47.10
2017-06-23T22:05:18.063Z,47.30
2017-06-23T22:07:44.284Z,47.30
2017-06-23T22:10:10.454Z,47.30
2017-06-23T22:12:36.700Z,46.80
2017-06-23T22:15:02.860Z,46.80
2017-06-23T22:17:29.010Z,47.60
2017-06-23T22:19:55.172Z,47.90
2017-06-23T22:22:21.323Z,48.60
2017-06-23T22:24:47.489Z,49.70
2017-06-23T22:27:13.639Z,50.60
2017-06-23T22:29:39.808Z,51.40
2017-06-23T22:32:05.959Z,51.80
2017-06-23T22:34:32.153Z,52.20
2017-06-23T22:36:58.300Z,52.50
2017-06-23T22:39:24.473Z,52.70
2017-06-23T22:41:50.621Z,52.80
2017-06-23T22:44:16.836Z,52.90
2017-06-23T22:46:42.992Z,53.50
2017-06-23T22:49:09.160Z,53.60
2017-06-23T22:51:35.312Z,53.20
2017-06-23T22:54:01.472Z,53.30
2017-06-23T22:56:27.615Z,52.70
2017-06-23T22:58:53.787Z,53.00
2017-06-23T23:01:19.927Z,53.10
2017-06-23T23:03:46.119Z,53.40
2017-06-23T23:06:12.269Z,53.70
2017-06-23T23:08:38.468Z,53.90
2017-06-23T23:11:04.644Z,53.60
2017-06-23T23:13:30.792Z,53.50
2017-06-23T23:15:56.969Z,53.30
2017-06-23T23:18:23.116Z,53.00
2017-06-23T23:20:49.289Z,52.90
2017-06-23T23:23:15.442Z,53.20
2017-06-23T23:25:41.640Z,54.10
2017-06-23T23:28:07.783Z,54.10
2017-06-23T23:30:33.953Z,54.30
2017-06-23T23:33:00.110Z,54.60
2017-06-23T23:35:26.287Z,55.10
2017-06-23T23:37:52.439Z,55.40
2017-06-23T23:40:18.605Z,55.80
2017-06-23T23:42:44.760Z,55.80
2017-06-23T23:45:10.956Z,55.90
2017-06-23T23:47:37.103Z,55.70
2017-06-23T23:50:03.273Z,56.20
2017-06-23T23:52:29.432Z,56.00
2017-06-23T23:54:55.612Z,55.90
2017-06-23T23:57:21.760Z,55.40
2017-06-23T23:59:47.924Z,55.00
